createdAt,value
2022-08-23T00:00:05.580Z,100.00
2022-08-23T00:02:42.376Z,100.00
2022-08-23T00:05:13.707Z,100.00
2022-08-23T00:07:43.583Z,100.00
2022-08-23T00:10:12.698Z,100.00
2022-08-23T00:12:42.584Z,100.00
2022-08-23T00:15:12.153Z,100.00
2022-08-23T00:17:42.099Z,100.00
2022-08-23T00:20:11.785Z,100.00
2022-08-23T00:22:40.842Z,100.00
2022-08-23T00:25:11.155Z,100.00
2022-08-23T00:27:39.210Z,100.00
2022-08-23T00:30:12.279Z,100.00
2022-08-23T00:32:40.759Z,100.00
2022-08-23T00:35:10.114Z,100.00
2022-08-23T00:37:40.582Z,100.00
2022-08-23T00:40:10.937Z,100.00
2022-08-23T00:42:59.479Z,100.00
2022-08-23T00:45:49.266Z,100.00
2022-08-23T00:48:17.556Z,100.00
2022-08-23T00:50:50.702Z,100.00
2022-08-23T00:53:21.228Z,100.00
2022-08-23T00:55:50.733Z,100.00
2022-08-23T00:58:21.029Z,100.00
2022-08-23T01:00:53.117Z,100.00
2022-08-23T01:03:21.294Z,100.00
2022-08-23T01:05:53.251Z,100.00
2022-08-23T01:08:23.600Z,100.00
2022-08-23T01:10:55.529Z,100.00
2022-08-23T01:13:26.491Z,100.00
2022-08-23T01:15:58.753Z,100.00
2022-08-23T01:18:29.444Z,100.00
2022-08-23T01:21:02.608Z,100.00
2022-08-23T01:23:35.079Z,100.00
2022-08-23T01:26:03.476Z,100.00
2022-08-23T01:28:33.576Z,100.00
2022-08-23T01:31:04.019Z,100.00
2022-08-23T01:33:35.017Z,100.00
2022-08-23T01:36:04.277Z,100.00
2022-08-23T01:38:39.856Z,100.00
2022-08-23T01:41:10.367Z,100.00
2022-08-23T01:43:38.426Z,100.00
2022-08-23T01:46:10.755Z,100.00
2022-08-23T01:48:39.244Z,100.00
2022-08-23T01:51:08.189Z,100.00
2022-08-23T01:53:37.157Z,100.00
2022-08-23T01:56:07.371Z,100.00
2022-08-23T01:58:37.987Z,100.00
2022-08-23T02:01:06.774Z,100.00
2022-08-23T02:03:37.151Z,100.00
2022-08-23T02:06:05.738Z,100.00
2022-08-23T02:08:52.176Z,100.00
2022-08-23T02:11:25.838Z,100.00
2022-08-23T02:13:55.275Z,100.00
2022-08-23T02:16:27.892Z,100.00
2022-08-23T02:18:57.817Z,100.00
2022-08-23T02:21:26.483Z,100.00
2022-08-23T02:23:54.503Z,100.00
2022-08-23T02:26:31.048Z,100.00
2022-08-23T02:29:00.884Z,100.00
2022-08-23T02:31:29.112Z,100.00
2022-08-23T02:33:57.443Z,100.00
2022-08-23T02:36:27.552Z,100.00
2022-08-23T02:38:56.604Z,100.00
2022-08-23T02:41:25.261Z,100.00
2022-08-23T02:43:54.118Z,100.00
2022-08-23T02:46:25.459Z,100.00
2022-08-23T02:48:54.104Z,100.00
2022-08-23T02:51:26.214Z,100.00
2022-08-23T02:53:54.690Z,100.00
2022-08-23T02:56:24.847Z,100.00
2022-08-23T02:58:54.423Z,100.00
2022-08-23T03:01:27.159Z,100.00
2022-08-23T03:03:58.348Z,100.00
2022-08-23T03:06:28.183Z,100.00
2022-08-23T03:08:56.684Z,100.00
2022-08-23T03:11:27.834Z,100.00
2022-08-23T03:13:57.439Z,100.00
2022-08-23T03:16:26.845Z,100.00
2022-08-23T03:18:55.154Z,100.00
2022-08-23T03:21:23.372Z,100.00
2022-08-23T03:23:53.183Z,100.00
2022-08-23T03:26:21.949Z,100.00
2022-08-23T03:28:52.318Z,100.00
2022-08-23T03:31:22.445Z,100.00
2022-08-23T03:34:07.092Z,100.00
2022-08-23T03:36:36.085Z,100.00
2022-08-23T03:39:05.376Z,100.00
2022-08-23T03:41:33.458Z,100.00
2022-08-23T03:44:01.908Z,100.00
2022-08-23T03:46:34.136Z,100.00
2022-08-23T03:49:03.401Z,100.00
2022-08-23T03:51:43.194Z,100.00
2022-08-23T03:54:11.315Z,100.00
2022-08-23T03:56:50.587Z,100.00
2022-08-23T03:59:18.758Z,100.00
2022-08-23T04:01:46.846Z,100.00
2022-08-23T04:04:14.981Z,100.00
2022-08-23T04:06:59.172Z,100.00
2022-08-23T04:09:27.884Z,100.00
2022-08-23T04:11:56.425Z,100.00
2022-08-23T04:14:25.834Z,100.00
2022-08-23T04:16:54.523Z,100.00
2022-08-23T04:19:25.320Z,100.00
2022-08-23T04:22:12.748Z,100.00
2022-08-23T04:24:42.568Z,100.00
2022-08-23T04:27:11.408Z,100.00
2022-08-23T04:29:39.982Z,100.00
2022-08-23T04:32:09.775Z,100.00
2022-08-23T04:34:39.948Z,100.00
2022-08-23T04:37:10.331Z,100.00
2022-08-23T04:39:52.820Z,100.00
2022-08-23T04:42:23.253Z,100.00
2022-08-23T04:44:52.699Z,100.00
2022-08-23T04:47:21.324Z,100.00
2022-08-23T04:49:51.103Z,100.00
2022-08-23T04:52:20.723Z,100.00
2022-08-23T04:54:49.310Z,100.00
2022-08-23T04:57:42.443Z,100.00
2022-08-23T05:00:13.498Z,100.00
2022-08-23T05:02:49.107Z,100.00
2022-08-23T05:05:18.091Z,100.00
2022-08-23T05:07:47.908Z,100.00
2022-08-23T05:10:17.665Z,100.00
2022-08-23T05:12:49.847Z,100.00
2022-08-23T05:15:19.435Z,100.00
2022-08-23T05:17:50.992Z,100.00
2022-08-23T05:20:19.295Z,100.00
2022-08-23T05:22:48.881Z,100.00
2022-08-23T05:25:44.640Z,100.00
2022-08-23T05:28:15.330Z,100.00
2022-08-23T05:30:43.408Z,100.00
2022-08-23T05:33:24.820Z,100.00
2022-08-23T05:35:53.035Z,100.00
2022-08-23T05:38:22.752Z,100.00
2022-08-23T05:40:55.064Z,100.00
2022-08-23T05:43:26.750Z,100.00
2022-08-23T05:46:01.631Z,100.00
2022-08-23T05:48:32.203Z,100.00
2022-08-23T05:51:11.745Z,100.00
2022-08-23T05:53:41.458Z,100.00
2022-08-23T05:56:11.520Z,100.00
2022-08-23T05:58:39.635Z,100.00
2022-08-23T06:01:08.113Z,100.00
2022-08-23T06:03:36.315Z,100.00
2022-08-23T06:06:05.132Z,100.00
2022-08-23T06:08:33.906Z,100.00
2022-08-23T06:11:05.191Z,100.00
2022-08-23T06:13:40.729Z,93.64
2022-08-23T06:16:15.077Z,93.78
2022-08-23T06:18:44.931Z,88.02
2022-08-23T06:21:39.560Z,81.75
2022-08-23T06:24:08.052Z,100.00
2022-08-23T06:26:45.137Z,100.00
2022-08-23T06:29:14.569Z,100.00
2022-08-23T06:31:47.569Z,100.00
2022-08-23T06:34:26.942Z,100.00
2022-08-23T06:37:15.735Z,100.00
2022-08-23T06:40:12.709Z,100.00
2022-08-23T06:43:00.036Z,100.00
2022-08-23T06:45:39.774Z,100.00
2022-08-23T06:48:09.600Z,100.00
2022-08-23T06:50:37.673Z,100.00
2022-08-23T06:53:24.335Z,100.00
2022-08-23T06:56:18.451Z,100.00
2022-08-23T06:59:15.199Z,100.00
2022-08-23T07:01:59.461Z,100.00
2022-08-23T07:04:44.327Z,100.00
2022-08-23T07:07:37.638Z,100.00
2022-08-23T07:10:10.803Z,98.75
2022-08-23T07:12:40.740Z,93.66
2022-08-23T07:15:11.156Z,94.02
2022-08-23T07:17:42.418Z,93.88
2022-08-23T07:20:10.989Z,95.14
2022-08-23T07:22:41.524Z,88.10
2022-08-23T07:25:11.502Z,87.47
2022-08-23T07:27:42.350Z,87.24
2022-08-23T07:30:13.382Z,83.77
2022-08-23T07:32:41.884Z,81.06
2022-08-23T07:35:21.584Z,83.41
2022-08-23T07:37:51.147Z,80.89
2022-08-23T07:40:27.751Z,79.28
2022-08-23T07:42:58.813Z,77.45
2022-08-23T07:45:29.544Z,75.24
2022-08-23T07:48:01.857Z,75.90
2022-08-23T07:50:34.010Z,74.84
2022-08-23T07:53:03.456Z,73.20
2022-08-23T07:55:32.022Z,74.24
2022-08-23T07:58:26.732Z,72.29
2022-08-23T08:01:20.180Z,70.70
2022-08-23T08:03:52.486Z,68.98
2022-08-23T08:06:28.432Z,72.97
2022-08-23T08:08:57.042Z,68.50
2022-08-23T08:11:29.697Z,69.14
2022-08-23T08:14:03.793Z,68.50
2022-08-23T08:16:34.644Z,68.18
2022-08-23T08:19:07.723Z,66.89
2022-08-23T08:21:54.531Z,66.27
2022-08-23T08:24:38.833Z,65.46
2022-08-23T08:27:10.535Z,66.56
2022-08-23T08:29:38.604Z,65.68
2022-08-23T08:32:08.942Z,63.96
2022-08-23T08:34:42.328Z,63.36
2022-08-23T08:37:11.902Z,62.66
2022-08-23T08:39:45.603Z,62.30
2022-08-23T08:42:26.397Z,60.88
2022-08-23T08:44:56.173Z,59.58
2022-08-23T08:47:33.792Z,59.96
2022-08-23T08:50:04.124Z,58.76
2022-08-23T08:52:34.466Z,59.55
2022-08-23T08:55:09.068Z,57.65
2022-08-23T08:57:42.659Z,57.97
2022-08-23T09:00:13.475Z,56.80
2022-08-23T09:02:45.755Z,55.89
2022-08-23T09:05:18.018Z,54.50
2022-08-23T09:07:53.063Z,55.00
2022-08-23T09:10:29.000Z,54.43
2022-08-23T09:13:18.038Z,50.89
2022-08-23T09:15:53.835Z,52.23
2022-08-23T09:18:25.614Z,50.53
2022-08-23T09:20:57.891Z,52.09
2022-08-23T09:23:29.380Z,49.26
2022-08-23T09:26:03.692Z,49.49
2022-08-23T09:28:37.517Z,48.34
2022-08-23T09:31:08.374Z,48.88
2022-08-23T09:33:40.858Z,47.93
2022-08-23T09:36:19.106Z,44.49
2022-08-23T09:38:54.069Z,42.85
2022-08-23T09:41:25.160Z,42.85
2022-08-23T09:43:56.572Z,43.00
2022-08-23T09:46:28.613Z,44.22
2022-08-23T09:48:59.242Z,44.25
2022-08-23T09:51:35.932Z,44.83
2022-08-23T09:54:11.512Z,43.92
2022-08-23T09:56:41.242Z,42.11
2022-08-23T09:59:33.587Z,41.82
2022-08-23T10:02:14.603Z,40.35
2022-08-23T10:04:47.087Z,41.22
2022-08-23T10:07:25.317Z,40.01
2022-08-23T10:09:55.995Z,40.13
2022-08-23T10:12:24.997Z,40.14
2022-08-23T10:14:53.673Z,39.17
2022-08-23T10:17:28.078Z,40.00
2022-08-23T10:20:02.012Z,40.28
2022-08-23T10:22:41.934Z,38.68
2022-08-23T10:25:24.550Z,37.37
2022-08-23T10:28:15.855Z,38.49
2022-08-23T10:30:49.176Z,36.37
2022-08-23T10:33:21.144Z,36.90
2022-08-23T10:36:00.663Z,40.37
2022-08-23T10:38:42.138Z,37.90
2022-08-23T10:41:19.019Z,36.85
2022-08-23T10:43:53.656Z,36.25
2022-08-23T10:46:22.888Z,36.45
2022-08-23T10:48:53.780Z,35.98
2022-08-23T10:51:31.703Z,35.90
2022-08-23T10:54:06.141Z,34.64
2022-08-23T10:56:34.991Z,34.85
2022-08-23T10:59:08.876Z,34.75
2022-08-23T11:01:42.725Z,35.52
2022-08-23T11:04:17.631Z,35.18
2022-08-23T11:07:02.223Z,34.94
2022-08-23T11:09:52.375Z,34.77
2022-08-23T11:12:34.235Z,35.09
2022-08-23T11:15:14.239Z,34.14
2022-08-23T11:18:03.572Z,34.46
2022-08-23T11:20:53.140Z,34.10
2022-08-23T11:23:43.130Z,33.98
2022-08-23T11:26:12.423Z,37.42
2022-08-23T11:28:42.610Z,34.79
2022-08-23T11:31:22.780Z,34.42
2022-08-23T11:33:53.776Z,33.98
2022-08-23T11:36:23.810Z,33.32
2022-08-23T11:39:05.367Z,33.81
2022-08-23T11:41:34.439Z,34.94
2022-08-23T11:44:22.581Z,34.62
2022-08-23T11:47:02.142Z,33.84
2022-08-23T11:49:53.681Z,33.08
2022-08-23T11:52:32.754Z,33.71
2022-08-23T11:55:24.226Z,35.31
2022-08-23T11:58:03.531Z,32.89
2022-08-23T12:00:52.029Z,33.32
2022-08-23T12:03:25.585Z,33.13
2022-08-23T12:06:12.639Z,33.25
2022-08-23T12:08:49.370Z,32.68
2022-08-23T12:11:20.234Z,32.80
2022-08-23T12:13:50.892Z,32.75
2022-08-23T12:16:36.647Z,31.94
2022-08-23T12:19:13.732Z,31.41
2022-08-23T12:21:43.912Z,31.53
2022-08-23T12:24:20.461Z,31.42
2022-08-23T12:26:58.213Z,31.85
2022-08-23T12:29:33.616Z,31.66
2022-08-23T12:32:05.821Z,31.51
2022-08-23T12:34:39.080Z,31.50
2022-08-23T12:37:12.573Z,31.92
2022-08-23T12:39:47.636Z,31.81
2022-08-23T12:42:19.803Z,32.49
2022-08-23T12:44:48.786Z,31.76
2022-08-23T12:47:17.895Z,31.68
2022-08-23T12:49:55.240Z,31.87
2022-08-23T12:52:25.495Z,31.26
2022-08-23T12:54:57.639Z,31.26
2022-08-23T12:57:31.133Z,30.99
2022-08-23T13:00:17.546Z,32.31
2022-08-23T13:02:48.538Z,31.22
2022-08-23T13:05:22.101Z,31.65
2022-08-23T13:07:51.170Z,33.45
2022-08-23T13:10:20.010Z,32.72
2022-08-23T13:12:49.543Z,31.03
2022-08-23T13:15:34.253Z,31.28
2022-08-23T13:18:04.707Z,30.19
2022-08-23T13:20:32.870Z,31.03
2022-08-23T13:23:03.456Z,31.03
2022-08-23T13:25:35.021Z,30.68
2022-08-23T13:28:06.035Z,30.20
2022-08-23T13:30:36.288Z,30.37
2022-08-23T13:33:21.961Z,30.54
2022-08-23T13:35:50.981Z,31.80
2022-08-23T13:38:22.065Z,32.15
2022-08-23T13:40:55.067Z,30.39
2022-08-23T13:43:26.971Z,30.13
2022-08-23T13:45:56.666Z,30.53
2022-08-23T13:48:26.140Z,30.13
2022-08-23T13:50:54.273Z,31.09
2022-08-23T13:53:22.477Z,31.75
2022-08-23T13:55:52.328Z,30.90
2022-08-23T13:58:27.650Z,31.13
2022-08-23T14:00:58.627Z,30.86
2022-08-23T14:03:27.455Z,29.82
2022-08-23T14:05:55.650Z,30.28
2022-08-23T14:08:25.872Z,30.52
2022-08-23T14:10:53.995Z,30.39
2022-08-23T14:13:25.263Z,30.20
2022-08-23T14:15:56.529Z,30.09
2022-08-23T14:18:26.832Z,29.98
2022-08-23T14:20:56.377Z,30.10
2022-08-23T14:23:24.987Z,30.16
2022-08-23T14:25:54.925Z,30.46
2022-08-23T14:28:23.524Z,30.39
2022-08-23T14:30:52.394Z,31.07
2022-08-23T14:33:21.858Z,30.60
2022-08-23T14:35:52.232Z,30.36
2022-08-23T14:38:20.673Z,30.90
2022-08-23T14:40:52.720Z,30.99
2022-08-23T14:43:21.670Z,30.83
2022-08-23T14:45:50.388Z,31.72
2022-08-23T14:48:18.829Z,30.62
2022-08-23T14:50:48.454Z,30.28
2022-08-23T14:53:18.631Z,30.91
2022-08-23T14:56:01.127Z,31.63
2022-08-23T14:58:40.170Z,31.41
2022-08-23T15:01:08.375Z,30.21
2022-08-23T15:03:41.761Z,31.88
2022-08-23T15:06:11.561Z,30.79
2022-08-23T15:08:39.647Z,30.92
2022-08-23T15:14:00.078Z,31.57
2022-08-23T15:16:28.861Z,30.59
2022-08-23T15:18:57.833Z,30.59
2022-08-23T15:21:27.276Z,30.70
2022-08-23T15:23:55.393Z,31.08
2022-08-23T15:26:24.630Z,29.98
2022-08-23T15:28:53.508Z,33.62
2022-08-23T15:31:21.961Z,31.77
2022-08-23T15:33:50.150Z,29.91
2022-08-23T15:36:18.653Z,31.30
2022-08-23T15:38:49.296Z,31.14
2022-08-23T15:41:18.878Z,31.45
2022-08-23T15:43:47.211Z,30.58
2022-08-23T15:46:18.309Z,31.05
2022-08-23T15:48:48.635Z,30.86
2022-08-23T15:51:17.896Z,31.07
2022-08-23T15:53:46.177Z,31.09
2022-08-23T15:56:18.155Z,30.69
2022-08-23T15:58:48.838Z,31.15
2022-08-23T16:01:19.872Z,32.14
2022-08-23T16:03:50.890Z,31.29
2022-08-23T16:06:19.378Z,31.48
2022-08-23T16:08:50.366Z,30.80
2022-08-23T16:11:20.705Z,31.56
2022-08-23T16:13:50.109Z,31.15
2022-08-23T16:16:25.565Z,31.16
2022-08-23T16:18:54.764Z,31.43
2022-08-23T16:21:23.365Z,31.18
2022-08-23T16:23:51.753Z,31.22
2022-08-23T16:26:23.016Z,31.22
2022-08-23T16:28:59.787Z,31.72
2022-08-23T16:31:38.944Z,31.32
2022-08-23T16:34:08.941Z,31.57
2022-08-23T16:36:37.745Z,31.26
2022-08-23T16:39:05.856Z,31.20
2022-08-23T16:41:37.516Z,31.63
2022-08-23T16:44:06.042Z,31.60
2022-08-23T16:46:34.317Z,31.31
2022-08-23T16:49:02.447Z,31.21
2022-08-23T16:51:30.583Z,32.02
2022-08-23T16:54:03.217Z,31.54
2022-08-23T16:56:31.655Z,31.74
2022-08-23T16:59:01.565Z,31.60
2022-08-23T17:01:30.151Z,31.78
2022-08-23T17:03:58.338Z,31.93
2022-08-23T17:06:26.457Z,31.44
2022-08-23T17:08:54.508Z,31.83
2022-08-23T17:11:23.570Z,31.89
2022-08-23T17:13:57.845Z,32.30
2022-08-23T17:16:35.634Z,30.00
2022-08-23T17:19:03.840Z,29.73
2022-08-23T17:21:32.444Z,32.45
2022-08-23T17:24:00.987Z,32.21
2022-08-23T17:26:29.039Z,32.68
2022-08-23T17:28:57.435Z,33.26
2022-08-23T17:31:25.617Z,32.80
2022-08-23T17:33:55.369Z,32.71
2022-08-23T17:36:27.654Z,32.98
2022-08-23T17:38:56.953Z,33.06
2022-08-23T17:41:25.107Z,33.12
2022-08-23T17:43:53.220Z,32.86
2022-08-23T17:46:22.308Z,33.51
2022-08-23T17:48:50.404Z,33.84
2022-08-23T17:51:19.843Z,34.03
2022-08-23T17:53:47.942Z,34.39
2022-08-23T17:56:16.016Z,34.69
2022-08-23T17:58:44.074Z,34.46
2022-08-23T18:01:12.299Z,34.76
2022-08-23T18:03:40.386Z,34.94
2022-08-23T18:06:16.493Z,35.96
2022-08-23T18:08:47.098Z,36.60
2022-08-23T18:11:15.582Z,37.19
2022-08-23T18:13:43.581Z,36.59
2022-08-23T18:16:12.343Z,36.97
2022-08-23T18:18:40.947Z,37.02
2022-08-23T18:21:11.894Z,37.08
2022-08-23T18:23:40.075Z,37.36
2022-08-23T18:26:30.502Z,37.61
2022-08-23T18:28:57.630Z,37.47
2022-08-23T18:31:26.986Z,36.52
2022-08-23T18:34:00.187Z,37.98
2022-08-23T18:36:29.402Z,39.97
2022-08-23T18:38:57.864Z,41.03
2022-08-23T18:41:27.319Z,40.14
2022-08-23T18:43:55.382Z,39.87
2022-08-23T18:46:23.422Z,41.37
2022-08-23T18:48:53.774Z,40.41
2022-08-23T18:51:22.233Z,40.62
2022-08-23T18:53:50.297Z,42.40
2022-08-23T18:56:18.423Z,45.35
2022-08-23T18:58:47.886Z,47.18
2022-08-23T19:01:22.874Z,44.55
2022-08-23T19:03:51.190Z,45.96
2022-08-23T19:06:19.912Z,43.38
2022-08-23T19:08:49.164Z,44.97
2022-08-23T19:11:17.385Z,43.75
2022-08-23T19:13:45.467Z,45.68
2022-08-23T19:16:15.867Z,42.89
2022-08-23T19:18:46.416Z,45.86
2022-08-23T19:21:16.230Z,47.14
2022-08-23T19:23:44.515Z,46.30
2022-08-23T19:26:12.960Z,46.38
2022-08-23T19:28:41.844Z,50.44
2022-08-23T19:31:10.002Z,53.39
2022-08-23T19:33:39.557Z,52.41
2022-08-23T19:36:18.943Z,52.96
2022-08-23T19:38:51.966Z,54.78
2022-08-23T19:41:20.307Z,53.44
2022-08-23T19:43:48.354Z,54.78
2022-08-23T19:46:16.801Z,54.02
2022-08-23T19:48:47.310Z,52.41
2022-08-23T19:51:17.210Z,49.08
2022-08-23T19:54:04.552Z,52.64
2022-08-23T19:56:35.078Z,57.03
2022-08-23T19:59:04.898Z,59.81
2022-08-23T20:01:33.551Z,56.76
2022-08-23T20:04:03.261Z,57.97
2022-08-23T20:06:33.595Z,55.64
2022-08-23T20:09:01.744Z,58.05
2022-08-23T20:11:31.888Z,63.21
2022-08-23T20:14:00.149Z,60.81
2022-08-23T20:16:29.015Z,58.72
2022-08-23T20:18:57.346Z,64.16
2022-08-23T20:21:26.759Z,63.21
2022-08-23T20:24:04.098Z,68.16
2022-08-23T20:26:33.782Z,65.15
2022-08-23T20:29:01.939Z,68.06
2022-08-23T20:31:31.828Z,63.29
2022-08-23T20:34:00.576Z,70.03
2022-08-23T20:36:29.994Z,65.89
2022-08-23T20:38:59.902Z,61.13
2022-08-23T20:41:31.677Z,60.80
2022-08-23T20:43:59.833Z,64.47
2022-08-23T20:46:28.122Z,64.12
2022-08-23T20:48:57.897Z,70.96
2022-08-23T20:51:26.800Z,68.96
2022-08-23T20:53:57.039Z,70.32
2022-08-23T20:56:25.763Z,70.14
2022-08-23T20:58:54.133Z,67.06
2022-08-23T21:01:22.619Z,68.57
2022-08-23T21:03:50.699Z,69.66
2022-08-23T21:06:21.160Z,74.44
2022-08-23T21:08:50.491Z,70.92
2022-08-23T21:11:25.991Z,70.85
2022-08-23T21:13:54.561Z,77.81
2022-08-23T21:16:22.818Z,75.60
2022-08-23T21:18:51.977Z,72.84
2022-08-23T21:21:22.431Z,73.99
2022-08-23T21:23:50.724Z,85.54
2022-08-23T21:26:22.116Z,81.63
2022-08-23T21:28:51.582Z,77.83
2022-08-23T21:31:20.778Z,79.45
2022-08-23T21:33:51.623Z,86.71
2022-08-23T21:36:20.220Z,86.28
2022-08-23T21:38:48.284Z,83.32
2022-08-23T21:41:27.931Z,90.53
2022-08-23T21:43:59.682Z,92.59
2022-08-23T21:46:30.225Z,94.00
2022-08-23T21:48:58.328Z,88.32
2022-08-23T21:51:29.667Z,90.52
2022-08-23T21:53:58.391Z,95.72
2022-08-23T21:56:28.247Z,92.34
2022-08-23T21:58:59.973Z,87.71
2022-08-23T22:02:36.366Z,84.02
2022-08-23T22:05:04.921Z,85.05
2022-08-23T22:07:34.883Z,89.30
2022-08-23T22:10:06.751Z,87.14
2022-08-23T22:12:34.823Z,87.22
2022-08-23T22:15:05.753Z,85.69
2022-08-23T22:17:33.804Z,88.16
2022-08-23T22:20:04.979Z,84.46
2022-08-23T22:22:33.206Z,86.48
2022-08-23T22:25:01.575Z,83.96
2022-08-23T22:27:29.865Z,81.90
2022-08-23T22:29:58.414Z,80.84
2022-08-23T22:32:26.660Z,80.83
2022-08-23T22:34:54.729Z,83.27
2022-08-23T22:37:25.171Z,85.66
2022-08-23T22:39:56.138Z,86.34
2022-08-23T22:42:24.505Z,89.41
2022-08-23T22:44:55.691Z,90.79
2022-08-23T22:47:23.796Z,92.16
2022-08-23T22:49:51.841Z,92.18
2022-08-23T22:52:20.219Z,100.00
2022-08-23T22:54:49.656Z,100.00
2022-08-23T22:57:17.688Z,100.00
2022-08-23T22:59:45.745Z,100.00
2022-08-23T23:02:13.997Z,100.00
2022-08-23T23:04:44.084Z,100.00
2022-08-23T23:07:14.248Z,100.00
2022-08-23T23:09:42.294Z,100.00
2022-08-23T23:12:12.880Z,100.00
2022-08-23T23:14:40.923Z,100.00
2022-08-23T23:17:09.003Z,100.00
2022-08-23T23:19:54.734Z,100.00
2022-08-23T23:22:22.766Z,100.00
2022-08-23T23:24:50.809Z,100.00
2022-08-23T23:27:20.180Z,100.00
2022-08-23T23:29:48.203Z,100.00
2022-08-23T23:32:18.091Z,100.00
2022-08-23T23:34:47.843Z,100.00
2022-08-23T23:37:15.882Z,100.00
2022-08-23T23:39:43.945Z,100.00
2022-08-23T23:42:12.056Z,100.00
2022-08-23T23:44:41.826Z,100.00
2022-08-23T23:47:09.867Z,100.00
2022-08-23T23:49:37.914Z,99.97
2022-08-23T23:52:07.168Z,100.00
2022-08-23T23:54:35.658Z,100.00
2022-08-23T23:57:04.202Z,99.84
2022-08-23T23:59:32.929Z,100.00
